Coalfield, TN (37719)

4:32 AM EDT on October 24, 2014 (GMT -0400)
Eyman Osage Rd | Change Station
CLOSE
Current Station
Personal Weather Station
Location: Oak Ridge, TN
Elevation: 1109 ft
Nearby Weather Stations

Elev 1109 ft 36.03 °N, 84.26 °W | Updated 9 minutes ago

Mostly Cloudy
Mostly Cloudy
48.2 °F
Feels Like 48 °F
N
0.0
Wind Variable Wind from SW

Today
High -- | Low -- °F
--% Chance of Precip.
Yesterday
High -- | Low -- °F
Precip. -- in
7:52 AM 6:50 PM
New Moon, 0% visible
Pressure 30.11 in
Visibility 10.0 miles
Clouds Clear
Windchill 48 °F
Dew Point 44 °F
Humidity 87%
Rainfall 0.00 in
Snow Depth Not available.
UV 0 out of 12
Pollen .90 out of 12
Ozone Good
Flu Activity Sporadic
METAR KOQT 240753Z AUTO 00000KT 10SM CLR 08/07 A3011 RMK AO2 SLP195 T00830072

More Conditions Fewer Conditions

Pressure 30.11 in
Visibility 10.0 miles
Clouds Clear
Windchill 48 °F
Dew Point 44 °F
Humidity 87%
Rainfall 0.00 in
Snow Depth Not available.
UV 0 out of 12
Pollen .90 out of 12
Ozone Good
Flu Activity Sporadic
METAR KOQT 240753Z AUTO 00000KT 10SM CLR 08/07 A3011 RMK AO2 SLP195 T00830072

More Conditions Fewer Conditions

10-Day Weather Forecast

Almanac

Astronomy

Oct. 24, 2014 Rise Set
Actual Time 7:52 AM EDT 6:50 PM EDT
Civil Twilight 7:26 AM EDT 7:16 PM EDT
Nautical Twilight 6:56 AM EDT 7:46 PM EDT
Astronomical Twilight 6:26 AM EDT 8:16 PM EDT
Moon 8:29 AM EDT 7:31 PM EDT
Length of Visible Light 11h 50m
Length of Day
10h 57m
Tomorrow will be 2m 7s shorter.
New Moon, 0% of the Moon is Illuminated
Today
New Moon
Oct 30
First Quarter
Nov 6
Full
Nov 14
Last Quarter
Nov 22
New

Today's Extremes

State Highs State Lows

Community

WunderPhotos

Upload Photos

1,764,511 photos uploaded!

WunderBlogs® & News

Nearby

Air Quality

  Air Quality AQ Index Pollutant
Yesterday Good
OZONE
Yesterday Good
PM2.5
Current Good
OZONE
Friday Good
PM2.5
Friday Good
OZONE
Saturday Good
PM2.5
Saturday Good
OZONE

Snow Depth

Station Depth Elevation
No new snow has been reported.

Earthquake Activity

City Distance Mag. Time & Date
No recent earthquake activity has been reported nearby.
Minimum magnitude displayed is 2.5.

Coastal Water Temperatures

Place Temperature
No Stations Reporting

Nearby Weather Stations